createdAt,value
2019-04-06T00:01:05.426Z,50.77
2019-04-06T00:03:35.013Z,64.00
2019-04-06T00:06:04.566Z,47.23
2019-04-06T00:08:34.152Z,53.03
2019-04-06T00:11:03.717Z,50.97
2019-04-06T00:13:33.637Z,56.17
2019-04-06T00:16:03.347Z,55.20
2019-04-06T00:18:33.909Z,53.43
2019-04-06T00:21:04.542Z,49.80
2019-04-06T00:23:34.084Z,46.30
2019-04-06T00:26:03.765Z,61.20
2019-04-06T00:28:33.342Z,50.93
2019-04-06T00:31:22.862Z,54.90
2019-04-06T00:33:52.414Z,54.73
2019-04-06T00:36:21.966Z,53.50
2019-04-06T00:38:51.578Z,54.30
2019-04-06T00:41:21.159Z,48.63
2019-04-06T00:43:50.699Z,54.20
2019-04-06T00:46:20.454Z,56.03
2019-04-06T00:48:50.023Z,49.23
2019-04-06T00:51:19.621Z,58.03
2019-04-06T00:53:49.162Z,46.17
2019-04-06T00:56:18.735Z,55.53
2019-04-06T00:58:48.311Z,44.93
2019-04-06T01:01:17.867Z,47.33
2019-04-06T01:03:47.431Z,47.40
2019-04-06T01:06:16.998Z,48.70
2019-04-06T01:08:46.613Z,50.57
2019-04-06T01:11:16.181Z,49.77
2019-04-06T01:13:45.769Z,46.20
2019-04-06T01:16:15.340Z,47.33
2019-04-06T01:18:45.019Z,44.80
2019-04-06T01:21:14.622Z,42.57
2019-04-06T01:23:44.190Z,49.87
2019-04-06T01:26:13.779Z,47.13
2019-04-06T01:28:43.445Z,45.50
2019-04-06T01:31:13.248Z,46.87
2019-04-06T01:33:42.845Z,42.00
2019-04-06T01:36:12.430Z,45.67
2019-04-06T01:38:42.399Z,53.87
2019-04-06T01:41:11.990Z,41.13
2019-04-06T01:43:41.541Z,54.40
2019-04-06T01:46:11.146Z,40.47
2019-04-06T01:48:41.579Z,43.07
2019-04-06T01:51:11.143Z,46.13
2019-04-06T01:53:40.733Z,43.80
2019-04-06T01:56:18.331Z,44.37
2019-04-06T01:58:42.399Z,50.07
2019-04-06T02:01:16.481Z,41.73
2019-04-06T02:03:46.082Z,42.50
2019-04-06T02:06:15.663Z,47.73
2019-04-06T02:08:45.557Z,44.17
2019-04-06T02:11:15.255Z,43.13
2019-04-06T02:13:44.923Z,47.03
2019-04-06T02:16:14.474Z,47.07
2019-04-06T02:18:44.037Z,42.37
2019-04-06T02:21:13.623Z,42.77
2019-04-06T02:23:43.179Z,44.27
2019-04-06T02:26:12.765Z,44.60
2019-04-06T02:28:44.050Z,42.83
2019-04-06T02:31:21.197Z,44.80
2019-04-06T02:33:58.184Z,46.60
2019-04-06T02:36:35.406Z,46.27
2019-04-06T02:39:07.795Z,42.00
2019-04-06T02:41:51.233Z,43.47
2019-04-06T02:44:20.840Z,36.63
2019-04-06T02:46:50.410Z,46.70
2019-04-06T02:49:20.189Z,46.43
2019-04-06T02:51:49.840Z,46.10
2019-04-06T02:54:19.426Z,42.13
2019-04-06T02:56:59.269Z,41.63
2019-04-06T02:59:28.944Z,42.90
2019-04-06T03:01:58.548Z,37.40
2019-04-06T03:04:28.143Z,38.10
2019-04-06T03:06:57.702Z,39.43
2019-04-06T03:09:27.439Z,37.60
2019-04-06T03:11:57.285Z,36.33
2019-04-06T03:14:26.854Z,48.30
2019-04-06T03:16:56.437Z,36.57
2019-04-06T03:19:25.994Z,38.27
2019-04-06T03:21:55.759Z,41.27
2019-04-06T03:24:26.426Z,39.57
2019-04-06T03:27:02.185Z,38.10
2019-04-06T03:29:27.183Z,38.00
2019-04-06T03:31:57.056Z,35.87
2019-04-06T03:34:28.426Z,36.60
2019-04-06T03:36:58.003Z,41.47
2019-04-06T03:39:27.610Z,34.60
2019-04-06T03:41:57.533Z,36.20
2019-04-06T03:44:27.134Z,39.30
2019-04-06T03:46:56.721Z,34.50
2019-04-06T03:49:26.289Z,32.67
2019-04-06T03:51:56.123Z,38.27
2019-04-06T03:54:25.667Z,38.17
2019-04-06T03:56:55.336Z,32.87
2019-04-06T03:59:24.943Z,29.30
2019-04-06T04:01:54.519Z,42.90
2019-04-06T04:04:24.226Z,33.97
2019-04-06T04:06:53.869Z,37.13
2019-04-06T04:09:23.450Z,36.27
2019-04-06T04:11:53.008Z,38.47
2019-04-06T04:14:22.575Z,44.40
2019-04-06T04:16:52.193Z,38.37
2019-04-06T04:19:22.743Z,37.57
2019-04-06T04:21:52.301Z,41.67
2019-04-06T04:24:22.093Z,34.67
2019-04-06T04:26:51.948Z,35.27
2019-04-06T04:29:21.568Z,37.90
2019-04-06T04:31:51.137Z,37.47
2019-04-06T04:34:20.706Z,40.17
2019-04-06T04:36:50.294Z,37.83
2019-04-06T04:39:19.865Z,39.03
2019-04-06T04:41:49.470Z,37.37
2019-04-06T04:44:19.042Z,44.40
2019-04-06T04:46:48.622Z,41.10
2019-04-06T04:49:18.220Z,38.57
2019-04-06T04:51:47.759Z,38.27
2019-04-06T04:54:17.364Z,33.33
2019-04-06T04:56:46.932Z,35.77
2019-04-06T04:59:16.629Z,33.63
2019-04-06T05:01:46.193Z,41.57
2019-04-06T05:04:15.740Z,45.93
2019-04-06T05:06:45.475Z,54.03
2019-04-06T05:09:15.021Z,52.20
2019-04-06T05:11:44.606Z,34.27
2019-04-06T05:14:50.427Z,36.47
2019-04-06T05:17:19.972Z,36.33
2019-04-06T05:19:49.556Z,37.70
2019-04-06T05:22:19.133Z,36.43
2019-04-06T05:24:48.736Z,35.33
2019-04-06T05:27:18.301Z,43.93
2019-04-06T05:29:47.897Z,37.73
2019-04-06T05:32:18.469Z,34.40
2019-04-06T05:34:48.023Z,31.97
2019-04-06T05:37:17.635Z,34.83
2019-04-06T05:39:47.183Z,44.83
2019-04-06T05:42:16.889Z,39.23
2019-04-06T05:44:46.552Z,37.83
2019-04-06T05:47:16.138Z,39.10
2019-04-06T05:49:45.781Z,37.97
2019-04-06T05:52:15.334Z,39.07
2019-04-06T05:54:44.904Z,39.07
2019-04-06T05:57:14.692Z,39.97
2019-04-06T05:59:44.671Z,34.50
2019-04-06T06:02:14.254Z,39.47
2019-04-06T06:04:43.827Z,36.70
2019-04-06T06:07:13.405Z,36.03
2019-04-06T06:09:42.990Z,33.50
2019-04-06T06:12:13.817Z,30.93
2019-04-06T06:14:43.413Z,36.53
2019-04-06T06:17:14.349Z,34.90
2019-04-06T06:19:44.127Z,31.90
2019-04-06T06:22:13.635Z,37.30
2019-04-06T06:24:43.203Z,41.77
2019-04-06T06:27:12.786Z,30.83
2019-04-06T06:29:42.364Z,31.17
2019-04-06T06:32:11.966Z,35.43
2019-04-06T06:34:41.654Z,37.80
2019-04-06T06:37:12.229Z,33.53
2019-04-06T06:39:41.814Z,34.20
2019-04-06T06:42:11.377Z,34.70
2019-04-06T06:44:41.004Z,38.73
2019-04-06T06:47:10.573Z,35.33
2019-04-06T06:49:40.157Z,34.37
2019-04-06T06:52:09.742Z,31.93
2019-04-06T06:54:39.326Z,32.63
2019-04-06T06:57:08.931Z,42.83
2019-04-06T06:59:38.520Z,34.50
2019-04-06T07:02:08.108Z,32.77
2019-04-06T07:04:37.689Z,44.37
2019-04-06T07:07:07.275Z,42.30
2019-04-06T07:09:36.866Z,32.07
2019-04-06T07:12:06.427Z,35.67
2019-04-06T07:14:36.045Z,39.07
2019-04-06T07:17:05.606Z,37.47
2019-04-06T07:19:35.177Z,34.17
2019-04-06T07:22:04.833Z,32.87
2019-04-06T07:24:34.412Z,37.77
2019-04-06T07:27:03.993Z,32.47
2019-04-06T07:29:33.594Z,39.47
2019-04-06T07:32:03.170Z,40.40
2019-04-06T07:34:32.762Z,39.37
2019-04-06T07:37:02.337Z,34.07
2019-04-06T07:39:32.815Z,36.57
2019-04-06T07:42:02.394Z,49.40
2019-04-06T07:44:32.362Z,37.03
2019-04-06T07:47:02.037Z,35.30
2019-04-06T07:49:32.785Z,33.03
2019-04-06T07:52:03.071Z,38.80
2019-04-06T07:54:32.642Z,33.40
2019-04-06T07:57:02.219Z,36.17
2019-04-06T07:59:31.806Z,38.63
2019-04-06T08:02:02.509Z,35.13
2019-04-06T08:04:32.096Z,42.30
2019-04-06T08:07:01.757Z,36.03
2019-04-06T08:09:31.374Z,39.43
2019-04-06T08:12:00.898Z,37.27
2019-04-06T08:14:30.519Z,38.43
2019-04-06T08:17:00.073Z,40.43
2019-04-06T08:19:40.039Z,39.23
2019-04-06T08:22:09.614Z,38.00
2019-04-06T08:24:39.206Z,37.43
2019-04-06T08:27:08.934Z,39.23
2019-04-06T08:29:38.464Z,47.73
2019-04-06T08:32:08.992Z,38.03
2019-04-06T08:34:38.559Z,36.50
2019-04-06T08:37:08.132Z,38.60
2019-04-06T08:39:38.140Z,40.70
2019-04-06T08:42:07.704Z,38.50
2019-04-06T08:44:37.678Z,32.47
2019-04-06T08:47:07.241Z,43.00
2019-04-06T08:49:36.841Z,32.30
2019-04-06T08:52:06.437Z,40.43
2019-04-06T08:54:35.987Z,34.70
2019-04-06T08:57:05.590Z,34.40
2019-04-06T08:59:35.161Z,35.50
2019-04-06T09:02:04.738Z,36.40
2019-04-06T09:04:34.309Z,36.93
2019-04-06T09:07:03.994Z,31.27
2019-04-06T09:09:33.621Z,35.33
2019-04-06T09:12:03.689Z,35.43
2019-04-06T09:14:33.271Z,33.87
2019-04-06T09:17:02.862Z,38.17
2019-04-06T09:19:32.516Z,39.00
2019-04-06T09:22:02.102Z,40.47
2019-04-06T09:24:31.768Z,36.63
2019-04-06T09:27:01.582Z,40.10
2019-04-06T09:29:31.192Z,39.13
2019-04-06T09:32:00.762Z,32.80
2019-04-06T09:34:31.116Z,36.77
2019-04-06T09:37:01.013Z,35.50
2019-04-06T09:39:30.744Z,37.10
2019-04-06T09:42:00.435Z,35.07
2019-04-06T09:44:37.651Z,36.50
2019-04-06T09:47:14.662Z,44.50
2019-04-06T09:49:45.846Z,34.60
2019-04-06T09:52:33.485Z,32.07
2019-04-06T09:55:04.668Z,40.97
2019-04-06T09:57:35.806Z,34.70
2019-04-06T10:00:25.225Z,40.17
2019-04-06T10:02:59.318Z,47.37
2019-04-06T10:05:42.961Z,43.47
2019-04-06T10:08:23.129Z,35.63
2019-04-06T10:10:57.259Z,42.10
2019-04-06T10:13:31.347Z,41.60
2019-04-06T10:16:08.071Z,38.83
2019-04-06T10:18:42.143Z,38.63
2019-04-06T10:21:13.453Z,38.60
2019-04-06T10:23:44.584Z,49.17
2019-04-06T10:26:21.514Z,38.97
2019-04-06T10:29:02.042Z,37.73
2019-04-06T10:31:33.315Z,42.70
2019-04-06T10:34:10.279Z,35.47
2019-04-06T10:36:43.933Z,41.97
2019-04-06T10:39:17.958Z,37.27
2019-04-06T10:42:04.274Z,39.33
2019-04-06T10:44:51.746Z,40.70
2019-04-06T10:47:29.757Z,42.03
2019-04-06T10:50:03.730Z,39.73
2019-04-06T10:52:51.157Z,41.63
2019-04-06T10:55:38.535Z,46.17
2019-04-06T10:58:15.383Z,39.70
2019-04-06T11:00:52.262Z,43.43
2019-04-06T11:03:26.526Z,42.87
2019-04-06T11:05:57.664Z,45.60
2019-04-06T11:08:31.602Z,43.20
2019-04-06T11:11:19.376Z,45.40
2019-04-06T11:14:03.456Z,41.90
2019-04-06T11:16:53.138Z,36.97
2019-04-06T11:19:26.819Z,46.83
2019-04-06T11:22:09.927Z,44.80
2019-04-06T11:24:41.121Z,41.77
2019-04-06T11:27:12.262Z,38.10
2019-04-06T11:29:50.212Z,39.37
2019-04-06T11:32:21.350Z,44.70
2019-04-06T11:35:07.942Z,43.93
2019-04-06T11:37:59.197Z,43.30
2019-04-06T11:40:36.372Z,41.70
2019-04-06T11:43:18.854Z,40.83
2019-04-06T11:46:07.208Z,53.20
2019-04-06T11:48:45.634Z,58.03
2019-04-06T11:51:20.255Z,59.23
2019-04-06T11:54:06.963Z,61.23
2019-04-06T11:56:40.771Z,56.07
2019-04-06T11:59:11.932Z,58.10
2019-04-06T12:01:59.861Z,100.80
2019-04-06T12:04:34.286Z,57.00
2019-04-06T12:07:05.723Z,58.63
2019-04-06T12:09:39.617Z,55.27
2019-04-06T12:12:10.907Z,78.60
2019-04-06T12:14:48.303Z,77.33
2019-04-06T12:17:19.833Z,72.30
2019-04-06T12:19:54.038Z,67.47
2019-04-06T12:22:31.116Z,75.57
2019-04-06T12:25:08.512Z,67.87
2019-04-06T12:27:42.657Z,67.13
2019-04-06T12:30:19.889Z,91.97
2019-04-06T12:32:51.143Z,86.37
2019-04-06T12:35:38.420Z,116.87
2019-04-06T12:38:12.176Z,98.83
2019-04-06T12:40:49.524Z,91.07
2019-04-06T12:43:23.744Z,102.10
2019-04-06T12:46:11.562Z,85.80
2019-04-06T12:48:58.902Z,129.63
2019-04-06T12:51:46.280Z,93.47
2019-04-06T12:54:20.351Z,108.03
2019-04-06T12:57:00.257Z,95.63
2019-04-06T12:59:43.522Z,98.00
2019-04-06T13:02:14.690Z,100.47
2019-04-06T13:04:54.831Z,98.83
2019-04-06T13:07:31.753Z,91.70
2019-04-06T13:10:02.970Z,97.83
2019-04-06T13:12:47.152Z,108.73
2019-04-06T13:15:21.453Z,97.33
2019-04-06T13:17:58.460Z,104.87
2019-04-06T13:20:46.134Z,105.50
2019-04-06T13:23:23.263Z,100.40
2019-04-06T13:25:57.416Z,102.83
2019-04-06T13:28:34.659Z,109.90
2019-04-06T13:31:05.848Z,147.90
2019-04-06T13:33:55.521Z,142.37
2019-04-06T13:36:26.988Z,146.27
2019-04-06T13:38:58.182Z,114.30
2019-04-06T13:41:34.966Z,119.37
2019-04-06T13:44:18.359Z,122.67
2019-04-06T13:46:49.531Z,139.20
2019-04-06T13:49:26.408Z,139.13
2019-04-06T13:52:03.081Z,144.80
2019-04-06T13:54:50.246Z,171.33
2019-04-06T13:57:21.740Z,140.53
2019-04-06T13:59:55.787Z,121.77
2019-04-06T14:02:32.982Z,124.80
2019-04-06T14:05:04.134Z,114.77
2019-04-06T14:07:44.855Z,119.30
2019-04-06T14:10:16.080Z,133.90
2019-04-06T14:12:47.203Z,118.03
2019-04-06T14:15:34.376Z,126.27
2019-04-06T14:18:05.691Z,127.40
2019-04-06T14:20:40.055Z,109.10
2019-04-06T14:23:11.422Z,117.53
2019-04-06T14:25:58.733Z,114.37
2019-04-06T14:28:38.923Z,112.93
2019-04-06T14:31:29.494Z,138.77
2019-04-06T14:33:59.445Z,142.33
2019-04-06T14:36:36.666Z,142.90
2019-04-06T14:39:25.395Z,130.43
2019-04-06T14:41:59.393Z,132.10
2019-04-06T14:44:36.286Z,123.50
2019-04-06T14:47:07.437Z,143.83
2019-04-06T14:49:38.586Z,131.67
2019-04-06T14:52:18.722Z,170.67
2019-04-06T14:54:56.594Z,155.83
2019-04-06T14:57:36.631Z,173.53
2019-04-06T15:00:11.802Z,165.63
2019-04-06T15:02:59.505Z,167.33
2019-04-06T15:05:33.765Z,169.00
2019-04-06T15:08:04.930Z,164.50
2019-04-06T15:10:41.824Z,144.60
2019-04-06T15:13:29.317Z,149.37
2019-04-06T15:16:06.166Z,142.27
2019-04-06T15:18:43.083Z,120.10
2019-04-06T15:21:23.319Z,135.40
2019-04-06T15:24:10.760Z,124.73
2019-04-06T15:26:54.247Z,127.00
2019-04-06T15:29:32.725Z,137.40
2019-04-06T15:32:04.075Z,150.07
2019-04-06T15:34:35.235Z,125.33
2019-04-06T15:37:21.453Z,152.97
2019-04-06T15:40:09.072Z,144.43
2019-04-06T15:42:40.400Z,126.70
2019-04-06T15:45:14.606Z,142.73
2019-04-06T15:48:01.954Z,131.57
2019-04-06T15:50:33.146Z,135.73
2019-04-06T15:53:05.288Z,161.97
2019-04-06T15:55:38.990Z,278.63
2019-04-06T15:58:14.754Z,240.20
2019-04-06T16:00:46.830Z,143.53
2019-04-06T16:03:21.863Z,120.80
2019-04-06T16:05:58.988Z,105.47
2019-04-06T16:08:36.321Z,122.73
2019-04-06T16:11:24.689Z,108.07
2019-04-06T16:14:14.964Z,117.33
2019-04-06T16:16:48.866Z,113.10
2019-04-06T16:19:29.155Z,156.73
2019-04-06T16:22:09.648Z,151.70
2019-04-06T16:24:40.767Z,100.43
2019-04-06T16:27:11.932Z,97.07
2019-04-06T16:29:58.993Z,96.30
2019-04-06T16:32:48.369Z,210.80
2019-04-06T16:35:35.186Z,195.97
2019-04-06T16:38:06.523Z,97.43
2019-04-06T16:40:37.690Z,98.73
2019-04-06T16:43:12.145Z,125.47
2019-04-06T16:46:00.184Z,116.60
2019-04-06T16:48:37.234Z,110.50
2019-04-06T16:51:24.859Z,99.63
2019-04-06T16:54:05.018Z,99.43
2019-04-06T16:56:51.183Z,103.73
2019-04-06T16:59:22.339Z,101.40
2019-04-06T17:01:53.486Z,105.77
2019-04-06T17:04:33.372Z,93.20
2019-04-06T17:07:07.606Z,95.23
2019-04-06T17:09:56.768Z,97.90
2019-04-06T17:12:33.767Z,96.73
2019-04-06T17:15:07.798Z,104.53
2019-04-06T17:17:41.866Z,113.47
2019-04-06T17:20:30.635Z,111.03
2019-04-06T17:23:13.687Z,116.90
2019-04-06T17:25:47.953Z,104.77
2019-04-06T17:28:24.812Z,123.87
2019-04-06T17:31:12.218Z,108.10
2019-04-06T17:33:58.402Z,92.00
2019-04-06T17:36:29.944Z,103.13
2019-04-06T17:39:01.535Z,97.03
2019-04-06T17:41:34.175Z,86.40
2019-04-06T17:44:08.302Z,87.63
2019-04-06T17:46:39.487Z,94.40
2019-04-06T17:49:36.991Z,99.77
2019-04-06T17:52:17.390Z,89.73
2019-04-06T17:54:51.507Z,100.43
2019-04-06T17:57:41.868Z,96.23
2019-04-06T18:00:18.799Z,89.23
2019-04-06T18:03:06.444Z,95.73
2019-04-06T18:05:43.745Z,95.17
2019-04-06T18:08:31.206Z,127.20
2019-04-06T18:11:02.784Z,108.63
2019-04-06T18:13:50.972Z,136.43
2019-04-06T18:16:23.132Z,129.47
2019-04-06T18:18:52.848Z,99.13
2019-04-06T18:21:22.447Z,76.20
2019-04-06T18:23:52.035Z,78.63
2019-04-06T18:26:21.607Z,121.53
2019-04-06T18:28:51.543Z,118.10
2019-04-06T18:31:26.490Z,123.47
2019-04-06T18:33:56.047Z,92.43
2019-04-06T18:36:27.623Z,139.47
2019-04-06T18:39:01.754Z,155.40
2019-04-06T18:41:32.954Z,144.33
2019-04-06T18:44:02.564Z,119.47
2019-04-06T18:46:32.097Z,167.27
2019-04-06T18:49:02.121Z,146.00
2019-04-06T18:51:32.787Z,85.43
2019-04-06T18:54:02.369Z,147.50
2019-04-06T18:56:33.054Z,142.60
2019-04-06T18:59:03.081Z,127.03
2019-04-06T19:01:32.653Z,147.00
2019-04-06T19:04:02.241Z,129.57
2019-04-06T19:06:32.143Z,148.17
2019-04-06T19:09:01.934Z,131.23
2019-04-06T19:11:32.795Z,126.40
2019-04-06T19:14:02.381Z,102.57
2019-04-06T19:16:31.948Z,106.10
2019-04-06T19:19:01.555Z,120.50
2019-04-06T19:21:31.166Z,126.93
2019-04-06T19:24:00.771Z,117.23
2019-04-06T19:26:30.492Z,112.97
2019-04-06T19:29:01.679Z,109.90
2019-04-06T19:31:32.705Z,103.77
2019-04-06T19:34:02.372Z,114.13
2019-04-06T19:36:44.270Z,102.53
2019-04-06T19:39:14.039Z,100.43
2019-04-06T19:41:43.791Z,94.80
2019-04-06T19:44:13.437Z,101.37
2019-04-06T19:46:44.378Z,93.97
2019-04-06T19:49:14.226Z,90.47
2019-04-06T19:51:44.200Z,79.90
2019-04-06T19:54:14.115Z,68.90
2019-04-06T19:56:44.083Z,79.80
2019-04-06T19:59:13.845Z,73.43
2019-04-06T20:01:43.450Z,75.43
2019-04-06T20:04:13.025Z,85.30
2019-04-06T20:06:42.623Z,74.87
2019-04-06T20:09:12.190Z,86.03
2019-04-06T20:11:42.168Z,81.27
2019-04-06T20:14:11.950Z,78.83
2019-04-06T20:16:41.937Z,75.67
2019-04-06T20:20:06.515Z,78.07
2019-04-06T20:28:00.348Z,82.43
2019-04-06T20:31:42.266Z,83.67
2019-04-06T20:35:25.146Z,75.93
2019-04-06T20:39:07.718Z,80.97
2019-04-06T20:41:55.000Z,61.77
2019-04-06T20:44:24.956Z,69.77
2019-04-06T20:46:54.498Z,76.47
2019-04-06T20:49:24.658Z,74.83
2019-04-06T20:51:54.337Z,70.57
2019-04-06T20:54:24.562Z,79.10
2019-04-06T20:56:58.050Z,82.40
2019-04-06T20:59:26.867Z,78.03
2019-04-06T21:01:58.892Z,61.17
2019-04-06T21:04:28.460Z,118.63
2019-04-06T21:06:58.013Z,139.67
2019-04-06T21:09:27.547Z,117.90
2019-04-06T21:11:57.052Z,106.90
2019-04-06T21:14:27.213Z,92.90
2019-04-06T21:17:16.283Z,112.20
2019-04-06T21:19:49.613Z,102.67
2019-04-06T21:22:20.758Z,348.97
2019-04-06T21:24:50.547Z,227.27
2019-04-06T21:27:20.162Z,137.77
2019-04-06T21:29:49.751Z,97.40
2019-04-06T21:32:19.364Z,116.10
2019-04-06T21:34:49.744Z,97.23
2019-04-06T21:37:19.252Z,125.70
2019-04-06T21:39:48.848Z,117.27
2019-04-06T21:42:19.816Z,96.00
2019-04-06T21:44:49.446Z,108.57
2019-04-06T21:47:19.390Z,98.63
2019-04-06T21:49:49.035Z,111.37
2019-04-06T21:52:19.215Z,123.03
2019-04-06T21:54:49.137Z,94.53
2019-04-06T21:57:19.805Z,98.93
2019-04-06T21:59:49.845Z,115.07
2019-04-06T22:02:19.451Z,116.67
2019-04-06T22:04:49.667Z,224.57
2019-04-06T22:07:19.385Z,271.83
2019-04-06T22:09:49.196Z,191.83
2019-04-06T22:12:18.901Z,147.93
2019-04-06T22:14:48.996Z,195.50
2019-04-06T22:17:18.712Z,270.67
2019-04-06T22:19:48.266Z,193.07
2019-04-06T22:22:18.004Z,301.20
2019-04-06T22:24:48.427Z,373.43
2019-04-06T22:27:18.485Z,367.60
2019-04-06T22:29:48.090Z,211.67
2019-04-06T22:32:18.063Z,132.53
2019-04-06T22:34:48.720Z,253.23
2019-04-06T22:37:18.314Z,212.10
2019-04-06T22:39:47.901Z,136.47
2019-04-06T22:42:18.078Z,119.27
2019-04-06T22:44:47.774Z,113.90
2019-04-06T22:47:17.332Z,108.00
2019-04-06T22:49:46.902Z,111.43
2019-04-06T22:52:16.473Z,128.63
2019-04-06T22:54:46.037Z,106.23
2019-04-06T22:57:15.969Z,100.97
2019-04-06T22:59:45.870Z,96.33
2019-04-06T23:02:15.719Z,138.20
2019-04-06T23:04:51.239Z,120.10
2019-04-06T23:07:22.372Z,109.07
2019-04-06T23:09:52.058Z,106.93
2019-04-06T23:12:22.153Z,130.07
2019-04-06T23:14:52.175Z,177.43
2019-04-06T23:17:22.429Z,91.53
2019-04-06T23:19:52.309Z,117.13
2019-04-06T23:22:23.191Z,149.20
2019-04-06T23:24:52.746Z,109.30
2019-04-06T23:27:22.701Z,109.43
2019-04-06T23:29:52.991Z,112.37
2019-04-06T23:32:23.084Z,129.33
2019-04-06T23:34:59.927Z,106.77
2019-04-06T23:37:24.307Z,104.17
2019-04-06T23:39:53.989Z,98.93
2019-04-06T23:42:23.938Z,172.70
2019-04-06T23:44:54.135Z,116.47
2019-04-06T23:47:24.690Z,166.63
2019-04-06T23:49:54.391Z,81.27
2019-04-06T23:52:24.063Z,74.67
2019-04-06T23:54:53.614Z,95.80
2019-04-06T23:57:23.773Z,96.57
2019-04-06T23:59:53.368Z,76.00
